Time;durP1;ratioP1;P1;durP2;ratioP2;P2;SDS_P1;SDS_P2;PMS_P1;PMS_P2;Temp;Humidity;BMP_temperature;BMP_pressure;BME280_temperature;BME280_humidity;BME280_pressure;Samples;Min_cycle;Max_cycle;Signal;HPM_P1;HPM_P2
2023/07/15 00:01:18;;;;;;;2.33;1.40;;;25.30;56.90;;;;;;4986477;28;20210;-72
2023/07/15 00:03:44;;;;;;;1.52;1.15;;;25.30;57.20;;;;;;5004439;28;20314;-72
2023/07/15 00:06:09;;;;;;;2.75;1.50;;;25.30;57.00;;;;;;4981528;28;20199;-72
2023/07/15 00:08:36;;;;;;;1.98;1.33;;;25.30;57.10;;;;;;4979468;28;20184;-72
2023/07/15 00:11:02;;;;;;;2.35;1.45;;;25.20;57.00;;;;;;4987113;28;20179;-73
2023/07/15 00:13:28;;;;;;;3.47;1.40;;;25.20;57.10;;;;;;4994557;28;20206;-72
2023/07/15 00:15:57;;;;;;;2.70;1.33;;;25.20;57.20;;;;;;5005339;28;20203;-63
2023/07/15 00:18:23;;;;;;;1.60;1.27;;;25.20;57.30;;;;;;4987175;28;20198;-72
2023/07/15 00:20:49;;;;;;;1.67;1.45;;;25.20;57.30;;;;;;4980998;28;20392;-72
2023/07/15 00:23:18;;;;;;;1.60;1.15;;;25.20;57.40;;;;;;4980093;28;20199;-72
2023/07/15 00:25:46;;;;;;;2.33;1.15;;;25.20;57.50;;;;;;4987944;28;20176;-72
2023/07/15 00:28:16;;;;;;;1.98;1.30;;;25.10;57.50;;;;;;4980810;28;20204;-72
2023/07/15 00:30:42;;;;;;;1.38;1.13;;;25.10;57.50;;;;;;4976502;28;20184;-72
2023/07/15 00:33:20;;;;;;;1.55;1.30;;;25.10;57.50;;;;;;4986654;28;20187;-72
2023/07/15 00:35:48;;;;;;;1.70;1.10;;;25.00;57.90;;;;;;4981039;28;20203;-72
2023/07/15 00:38:16;;;;;;;1.58;1.48;;;25.00;57.60;;;;;;4979221;28;20237;-71
2023/07/15 00:40:49;;;;;;;3.25;1.38;;;24.90;57.70;;;;;;4984874;28;20175;-69
2023/07/15 00:44:03;;;;;;;1.70;1.20;;;24.90;57.90;;;;;;4995096;28;20182;-70
2023/07/15 00:46:51;;;;;;;1.50;1.10;;;24.90;58.20;;;;;;5000342;28;20183;-69
2023/07/15 00:49:23;;;;;;;1.20;1.05;;;24.90;58.30;;;;;;5149592;22;20232;-71
2023/07/15 00:52:10;;;;;;;1.40;1.20;;;24.80;58.00;;;;;;5053939;28;20280;-71
2023/07/15 00:54:42;;;;;;;1.40;1.17;;;24.70;58.30;;;;;;5051652;28;20239;-69
2023/07/15 00:57:17;;;;;;;2.33;1.40;;;24.70;58.20;;;;;;5039229;28;20193;-71
2023/07/15 00:59:52;;;;;;;2.13;1.30;;;24.60;58.30;;;;;;5039272;28;20292;-71
2023/07/15 01:02:18;;;;;;;1.48;1.23;;;24.60;58.50;;;;;;5038565;28;20224;-72
2023/07/15 01:04:45;;;;;;;1.35;1.25;;;24.50;58.30;;;;;;5037402;28;20201;-71
2023/07/15 01:07:11;;;;;;;2.08;1.25;;;24.40;58.20;;;;;;5039060;28;20227;-71
2023/07/15 01:09:36;;;;;;;1.60;1.35;;;24.40;58.40;;;;;;5038393;28;20185;-72
2023/07/15 01:12:03;;;;;;;1.63;1.33;;;24.30;58.50;;;;;;5035672;28;20174;-72
2023/07/15 01:14:30;;;;;;;3.58;1.30;;;24.30;58.60;;;;;;5038096;28;20184;-69
2023/07/15 01:16:58;;;;;;;2.45;1.52;;;24.20;58.80;;;;;;5038804;28;20197;-71
2023/07/15 01:19:24;;;;;;;2.45;1.35;;;24.20;58.90;;;;;;5038052;28;20186;-71
2023/07/15 01:21:53;;;;;;;2.85;1.25;;;24.10;58.90;;;;;;5038895;28;20161;-71
2023/07/15 01:24:22;;;;;;;1.50;1.40;;;24.00;59.30;;;;;;5026100;28;20178;-72
2023/07/15 01:26:55;;;;;;;2.03;1.40;;;24.00;59.10;;;;;;5038458;28;20184;-71
2023/07/15 01:29:20;;;;;;;1.60;1.30;;;23.90;59.30;;;;;;5038779;28;20173;-71
2023/07/15 01:31:46;;;;;;;1.80;1.30;;;23.90;59.30;;;;;;5038538;28;20201;-71
2023/07/15 01:34:12;;;;;;;2.47;1.58;;;23.80;59.30;;;;;;5034806;28;20170;-71
2023/07/15 01:36:38;;;;;;;5.95;3.55;;;23.80;59.80;;;;;;5054235;28;20181;-70
2023/07/15 01:39:06;;;;;;;4.07;2.80;;;23.70;59.60;;;;;;5038125;28;20337;-69
2023/07/15 01:41:36;;;;;;;3.13;2.30;;;23.70;59.80;;;;;;5054774;28;20256;-71
2023/07/15 01:44:04;;;;;;;2.28;2.03;;;23.60;59.90;;;;;;5038438;28;20480;-71
2023/07/15 01:46:34;;;;;;;2.50;1.73;;;23.60;60.10;;;;;;5038211;28;20170;-72
2023/07/15 01:49:02;;;;;;;3.03;1.55;;;23.60;60.30;;;;;;5032500;28;20205;-68
2023/07/15 01:51:28;;;;;;;1.65;1.52;;;23.50;60.30;;;;;;5018765;28;20211;-72
2023/07/15 01:53:56;;;;;;;2.90;1.50;;;23.50;60.50;;;;;;5026510;28;20182;-70
2023/07/15 01:56:22;;;;;;;2.88;1.60;;;23.50;60.60;;;;;;5052032;28;20197;-71
2023/07/15 01:58:48;;;;;;;1.92;1.30;;;23.40;60.50;;;;;;5033831;28;20256;-71
2023/07/15 02:01:16;;;;;;;3.67;1.45;;;23.40;60.70;;;;;;5037485;28;20188;-72
2023/07/15 02:03:44;;;;;;;2.10;1.33;;;23.40;60.70;;;;;;5055271;28;20201;-69
2023/07/15 02:06:10;;;;;;;1.95;1.42;;;23.40;61.70;;;;;;5035326;28;20188;-71
2023/07/15 02:08:35;;;;;;;1.50;1.35;;;23.40;61.10;;;;;;5034310;28;20182;-71
2023/07/15 02:11:03;;;;;;;2.97;1.40;;;23.30;61.10;;;;;;5037300;28;20181;-71
2023/07/15 02:13:29;;;;;;;1.80;1.52;;;23.30;61.40;;;;;;5037950;28;20188;-72
2023/07/15 02:15:55;;;;;;;2.08;1.30;;;23.30;61.30;;;;;;5035218;28;20177;-72
2023/07/15 02:18:24;;;;;;;1.45;1.33;;;23.30;62.00;;;;;;5036925;28;20200;-72
2023/07/15 02:20:52;;;;;;;1.60;1.05;;;23.20;61.40;;;;;;5037543;28;20173;-72
2023/07/15 02:23:19;;;;;;;1.65;1.23;;;23.20;61.60;;;;;;5032499;28;20170;-71
2023/07/15 02:25:45;;;;;;;2.03;1.45;;;23.20;61.60;;;;;;5020358;28;20172;-72
2023/07/15 02:28:11;;;;;;;1.40;1.20;;;23.20;61.80;;;;;;5039692;28;20201;-72
2023/07/15 02:30:39;;;;;;;2.80;1.17;;;23.20;62.10;;;;;;5030339;28;20184;-73
2023/07/15 02:33:06;;;;;;;1.48;1.30;;;23.20;62.20;;;;;;5037332;28;20235;-72
2023/07/15 02:35:33;;;;;;;1.63;1.30;;;23.10;62.30;;;;;;5037190;28;20231;-70
2023/07/15 02:38:01;;;;;;;3.00;1.58;;;23.10;62.40;;;;;;5036305;28;20220;-72
2023/07/15 02:40:27;;;;;;;1.48;1.20;;;23.10;62.50;;;;;;5037380;28;20204;-72
2023/07/15 02:42:52;;;;;;;1.77;1.20;;;23.00;62.50;;;;;;5037346;28;20197;-72
2023/07/15 02:45:18;;;;;;;2.75;1.30;;;23.00;62.70;;;;;;5037119;28;20477;-72
2023/07/15 02:47:44;;;;;;;1.52;1.30;;;22.90;62.90;;;;;;5044236;28;20178;-72
2023/07/15 02:50:10;;;;;;;2.33;1.40;;;22.90;62.80;;;;;;5036415;28;20234;-71
2023/07/15 02:52:38;;;;;;;1.50;1.20;;;22.90;63.10;;;;;;5036436;28;20215;-72
2023/07/15 02:55:05;;;;;;;1.83;1.48;;;22.80;63.30;;;;;;5037043;28;20185;-71
2023/07/15 02:57:32;;;;;;;1.63;1.20;;;22.80;63.50;;;;;;5049057;28;20206;-72
2023/07/15 03:00:01;;;;;;;2.20;1.40;;;22.70;63.70;;;;;;5037045;28;20189;-72
2023/07/15 03:02:28;;;;;;;1.77;1.40;;;22.70;63.90;;;;;;5034913;28;20185;-73
2023/07/15 03:04:57;;;;;;;1.50;1.20;;;22.60;64.70;;;;;;5037489;28;20220;-71
2023/07/15 03:07:25;;;;;;;1.60;1.40;;;22.60;64.70;;;;;;5028163;28;20201;-72
2023/07/15 03:09:51;;;;;;;1.38;1.10;;;22.50;64.40;;;;;;5035910;28;20177;-73
2023/07/15 03:12:17;;;;;;;1.50;1.30;;;22.50;64.50;;;;;;5036650;28;20203;-72
2023/07/15 03:14:42;;;;;;;1.52;1.20;;;22.40;64.70;;;;;;5050835;28;20177;-72
2023/07/15 03:17:11;;;;;;;3.63;1.45;;;22.40;64.90;;;;;;5037141;28;20200;-72
2023/07/15 03:19:39;;;;;;;2.55;1.30;;;22.40;65.60;;;;;;5037036;28;20177;-72
2023/07/15 03:22:05;;;;;;;5.30;1.63;;;22.30;65.20;;;;;;5036786;28;20273;-72
2023/07/15 03:24:31;;;;;;;1.88;1.25;;;22.30;65.40;;;;;;5036837;28;20228;-72
2023/07/15 03:26:59;;;;;;;3.08;1.42;;;22.30;65.60;;;;;;5053305;28;20201;-71
2023/07/15 03:29:25;;;;;;;1.67;1.40;;;22.20;65.90;;;;;;5036214;28;20224;-71
2023/07/15 03:31:51;;;;;;;1.83;1.35;;;22.20;66.00;;;;;;5023116;28;20222;-72
2023/07/15 03:34:16;;;;;;;1.55;1.23;;;22.20;66.20;;;;;;5036567;28;20218;-72
2023/07/15 03:36:44;;;;;;;1.92;1.13;;;22.10;66.20;;;;;;5038073;28;20170;-72
2023/07/15 03:39:10;;;;;;;1.38;1.20;;;22.10;66.70;;;;;;5040509;28;20288;-71
2023/07/15 03:41:36;;;;;;;2.15;1.23;;;22.10;66.60;;;;;;5056376;28;20248;-72
2023/07/15 03:44:03;;;;;;;2.83;1.20;;;22.10;66.70;;;;;;5040749;28;20173;-71
2023/07/15 03:46:29;;;;;;;3.50;1.40;;;22.10;66.80;;;;;;5039724;28;20264;-72
2023/07/15 03:48:55;;;;;;;4.80;1.50;;;22.10;66.90;;;;;;5056623;28;20197;-71
2023/07/15 03:51:21;;;;;;;3.33;1.48;;;22.10;67.30;;;;;;5039630;28;20188;-72
2023/07/15 03:53:46;;;;;;;1.38;1.10;;;22.10;67.40;;;;;;5039553;28;20204;-71
2023/07/15 03:56:14;;;;;;;1.85;1.15;;;22.10;67.30;;;;;;5039541;28;20197;-72
2023/07/15 03:58:42;;;;;;;3.67;1.40;;;22.20;67.40;;;;;;5039914;28;20355;-71
2023/07/15 04:01:08;;;;;;;1.48;1.15;;;22.20;67.70;;;;;;5040382;28;20208;-72
2023/07/15 04:03:33;;;;;;;2.67;1.10;;;22.30;67.60;;;;;;5031946;28;20427;-71
2023/07/15 04:06:01;;;;;;;2.33;1.40;;;22.30;67.60;;;;;;5033527;28;20196;-72
2023/07/15 04:08:27;;;;;;;1.25;1.10;;;22.30;68.00;;;;;;5039578;28;20177;-71
2023/07/15 04:10:53;;;;;;;1.73;1.38;;;22.40;67.80;;;;;;5055968;28;20208;-72
2023/07/15 04:13:18;;;;;;;2.78;1.15;;;22.40;67.80;;;;;;5055485;28;20201;-72
2023/07/15 04:15:46;;;;;;;1.75;1.20;;;22.50;68.20;;;;;;5039209;28;20174;-72
2023/07/15 04:18:12;;;;;;;2.85;2.13;;;22.50;68.70;;;;;;5040088;28;20197;-72
2023/07/15 04:20:42;;;;;;;2.38;1.80;;;22.50;68.60;;;;;;5039322;28;20180;-71
2023/07/15 04:23:08;;;;;;;1.98;1.50;;;22.60;69.50;;;;;;5037297;28;20209;-71
2023/07/15 04:25:33;;;;;;;2.13;1.30;;;22.60;68.40;;;;;;5056195;28;20169;-71
2023/07/15 04:27:59;;;;;;;2.40;1.67;;;22.60;68.70;;;;;;5036583;28;20193;-70
2023/07/15 04:30:25;;;;;;;3.00;1.40;;;22.60;68.60;;;;;;5035096;28;20174;-70
2023/07/15 04:32:50;;;;;;;1.55;1.35;;;22.60;68.50;;;;;;5039424;28;20272;-72
2023/07/15 04:35:18;;;;;;;1.60;1.25;;;22.70;68.60;;;;;;5039071;28;20212;-70
2023/07/15 04:37:44;;;;;;;1.85;1.60;;;22.70;68.80;;;;;;5036536;28;20209;-70
2023/07/15 04:40:11;;;;;;;1.63;1.25;;;22.80;68.60;;;;;;5039751;28;20177;-70
2023/07/15 04:42:37;;;;;;;3.05;1.48;;;22.90;68.70;;;;;;5038321;28;20208;-70
2023/07/15 04:45:05;;;;;;;1.10;0.98;;;23.00;69.50;;;;;;5039086;28;20169;-71
2023/07/15 04:47:33;;;;;;;1.38;1.20;;;23.00;68.90;;;;;;5038146;28;20193;-69
2023/07/15 04:49:59;;;;;;;1.75;1.15;;;23.10;69.00;;;;;;5037044;28;20225;-71
2023/07/15 04:52:29;;;;;;;1.55;1.20;;;23.20;68.90;;;;;;5035507;28;20182;-70
2023/07/15 04:54:57;;;;;;;1.33;1.13;;;23.20;69.20;;;;;;5038080;28;20184;-71
2023/07/15 04:57:25;;;;;;;2.63;1.40;;;23.30;69.30;;;;;;5035816;28;20205;-71
2023/07/15 04:59:52;;;;;;;2.70;1.33;;;23.30;69.10;;;;;;5039481;28;20211;-71
2023/07/15 05:02:21;;;;;;;1.45;1.30;;;23.40;69.50;;;;;;5038510;28;20187;-71
2023/07/15 05:04:46;;;;;;;2.15;1.38;;;23.40;69.60;;;;;;5038737;28;20177;-71
2023/07/15 05:07:12;;;;;;;2.35;1.30;;;23.40;69.50;;;;;;5029386;28;20192;-71
2023/07/15 05:09:37;;;;;;;1.50;1.20;;;23.50;69.70;;;;;;5034347;28;20356;-71
2023/07/15 05:12:03;;;;;;;2.25;1.40;;;23.50;69.80;;;;;;5038926;28;20180;-72
2023/07/15 05:14:32;;;;;;;2.05;1.10;;;23.60;70.70;;;;;;5043435;28;20260;-70
2023/07/15 05:16:58;;;;;;;3.15;1.40;;;23.60;70.00;;;;;;5038769;28;20255;-70
2023/07/15 05:19:24;;;;;;;2.20;1.20;;;23.60;70.20;;;;;;5037838;28;20189;-70
2023/07/15 05:21:49;;;;;;;3.13;1.25;;;23.60;70.10;;;;;;5038513;28;20209;-71
2023/07/15 05:24:18;;;;;;;2.00;1.38;;;23.70;70.30;;;;;;5025174;28;20328;-71
2023/07/15 05:26:44;;;;;;;1.90;1.40;;;23.70;70.40;;;;;;5035898;28;20197;-72
2023/07/15 05:29:12;;;;;;;2.33;1.30;;;23.70;70.30;;;;;;5037408;28;20232;-71
2023/07/15 05:31:37;;;;;;;1.25;1.00;;;23.80;70.40;;;;;;5032676;28;20177;-72
2023/07/15 05:34:04;;;;;;;1.67;1.40;;;23.90;70.60;;;;;;5038145;28;20192;-71
2023/07/15 05:36:34;;;;;;;4.55;2.95;;;23.90;70.70;;;;;;5037306;28;20208;-71
2023/07/15 05:39:02;;;;;;;2.95;2.45;;;24.00;70.80;;;;;;5038462;28;20217;-71
2023/07/15 05:41:30;;;;;;;2.15;1.88;;;24.10;70.90;;;;;;5036990;28;20260;-71
2023/07/15 05:43:58;;;;;;;1.92;1.40;;;24.10;71.20;;;;;;5034654;28;20201;-71
2023/07/15 05:46:26;;;;;;;2.03;1.45;;;24.20;71.30;;;;;;5038112;28;20174;-71
2023/07/15 05:48:52;;;;;;;1.70;1.42;;;24.30;71.40;;;;;;5025925;28;20197;-71
2023/07/15 05:51:18;;;;;;;3.08;1.30;;;24.30;71.30;;;;;;5038228;28;20235;-70
2023/07/15 05:53:43;;;;;;;2.03;1.50;;;24.40;71.50;;;;;;5037925;28;20223;-72
2023/07/15 05:56:09;;;;;;;2.13;1.90;;;24.40;71.40;;;;;;5037858;28;20177;-72
2023/07/15 05:58:34;;;;;;;2.78;1.90;;;24.50;71.70;;;;;;5031163;28;20209;-70
2023/07/15 06:01:03;;;;;;;2.00;1.50;;;24.60;71.80;;;;;;5028696;28;20215;-71
2023/07/15 06:03:30;;;;;;;2.63;1.70;;;24.70;72.10;;;;;;5038309;28;20185;-71
2023/07/15 06:06:04;;;;;;;2.10;1.40;;;24.80;72.20;;;;;;5031059;28;20185;-71
2023/07/15 06:08:31;;;;;;;1.60;1.30;;;24.80;72.60;;;;;;5037477;28;20195;-71
2023/07/15 06:10:59;;;;;;;1.20;1.10;;;24.90;72.30;;;;;;5031696;28;20193;-70
2023/07/15 06:13:25;;;;;;;1.73;1.40;;;25.00;72.60;;;;;;5037285;28;20177;-71
2023/07/15 06:15:54;;;;;;;1.95;1.60;;;25.10;72.50;;;;;;5037989;28;20203;-71
2023/07/15 06:18:20;;;;;;;2.67;1.90;;;25.20;72.40;;;;;;5034032;28;20217;-71
2023/07/15 06:20:49;;;;;;;2.92;2.45;;;25.30;72.30;;;;;;5023443;28;20174;-71
2023/07/15 06:23:15;;;;;;;2.55;1.60;;;25.40;72.40;;;;;;5037437;28;20203;-71
2023/07/15 06:25:41;;;;;;;2.45;1.80;;;25.50;72.30;;;;;;5038137;28;20181;-71
2023/07/15 06:28:09;;;;;;;6.57;2.72;;;25.50;72.20;;;;;;5036916;28;20181;-71
2023/07/15 06:30:37;;;;;;;9.93;2.45;;;25.60;72.60;;;;;;5034330;28;20213;-71
2023/07/15 06:33:04;;;;;;;6.03;1.75;;;25.70;72.20;;;;;;5038029;28;20192;-71
2023/07/15 06:35:32;;;;;;;2.75;1.40;;;25.70;72.10;;;;;;5047912;28;20173;-71
2023/07/15 06:37:58;;;;;;;2.55;1.40;;;25.70;72.20;;;;;;5036907;28;20260;-71
2023/07/15 06:40:26;;;;;;;1.85;1.20;;;25.80;72.10;;;;;;5037153;28;20272;-70
2023/07/15 06:42:51;;;;;;;1.73;1.35;;;25.80;72.10;;;;;;5036988;28;20173;-71
2023/07/15 06:45:21;;;;;;;4.13;1.77;;;25.80;72.00;;;;;;5036230;28;20197;-71
2023/07/15 06:47:51;;;;;;;7.63;3.63;;;25.90;72.10;;;;;;5037208;28;20185;-72
2023/07/15 06:50:17;;;;;;;5.80;2.90;;;25.90;72.00;;;;;;5034008;28;20286;-71
2023/07/15 06:52:47;;;;;;;9.80;2.50;;;25.90;71.90;;;;;;5037389;28;20181;-70
2023/07/15 06:55:13;;;;;;;4.38;1.95;;;25.90;72.00;;;;;;5036915;28;20176;-70
2023/07/15 06:57:41;;;;;;;2.28;1.55;;;25.90;71.80;;;;;;5037103;28;20193;-71
2023/07/15 07:00:07;;;;;;;2.85;1.65;;;25.90;71.80;;;;;;5035863;28;20188;-69
2023/07/15 07:02:35;;;;;;;3.05;1.50;;;25.90;71.80;;;;;;5023679;28;20174;-71
2023/07/15 07:05:03;;;;;;;2.53;1.30;;;25.90;71.70;;;;;;5035918;28;20177;-70
2023/07/15 07:07:31;;;;;;;1.90;1.30;;;25.80;71.70;;;;;;5035372;28;20180;-70
2023/07/15 07:09:59;;;;;;;3.13;2.47;;;25.80;71.70;;;;;;5026306;28;20268;-71
2023/07/15 07:12:25;;;;;;;3.53;2.13;;;25.80;71.80;;;;;;5032220;28;20474;-71
2023/07/15 07:14:51;;;;;;;3.20;1.90;;;25.80;72.00;;;;;;5057037;28;20201;-71
2023/07/15 07:17:17;;;;;;;3.30;1.70;;;25.80;72.10;;;;;;5038600;28;20239;-71
2023/07/15 07:19:43;;;;;;;3.47;1.85;;;25.80;72.20;;;;;;5039773;28;20177;-72
2023/07/15 07:22:08;;;;;;;3.03;1.73;;;25.80;72.40;;;;;;5057221;28;20173;-71
2023/07/15 07:24:36;;;;;;;2.40;1.50;;;25.80;72.50;;;;;;5041211;28;20216;-71
2023/07/15 07:27:02;;;;;;;3.00;1.73;;;25.80;72.90;;;;;;5037879;28;20173;-72
2023/07/15 07:29:30;;;;;;;3.40;2.20;;;25.80;72.60;;;;;;5057813;28;20256;-71
2023/07/15 07:31:56;;;;;;;3.97;2.00;;;25.80;72.70;;;;;;5040649;28;20208;-71
2023/07/15 07:34:21;;;;;;;5.35;2.17;;;25.70;72.50;;;;;;5040772;28;20361;-71
2023/07/15 07:36:49;;;;;;;2.63;2.10;;;25.70;72.70;;;;;;5040453;28;20181;-71
2023/07/15 07:39:15;;;;;;;3.15;1.58;;;25.70;73.10;;;;;;5036633;28;20212;-69
2023/07/15 07:41:43;;;;;;;2.20;1.85;;;25.70;73.20;;;;;;5034007;28;20235;-67
2023/07/15 07:44:09;;;;;;;2.80;1.65;;;25.60;73.00;;;;;;5040771;28;20184;-66
2023/07/15 07:46:35;;;;;;;1.80;1.50;;;25.60;73.30;;;;;;5047399;28;20184;-67
2023/07/15 07:49:00;;;;;;;2.90;1.85;;;25.60;74.40;;;;;;5040845;28;20200;-66
2023/07/15 07:51:26;;;;;;;1.65;1.48;;;25.60;74.00;;;;;;5054700;28;20276;-66
2023/07/15 07:53:52;;;;;;;3.45;1.48;;;25.60;74.00;;;;;;5040364;28;20181;-67
2023/07/15 07:56:20;;;;;;;3.92;1.20;;;25.60;74.20;;;;;;5035972;28;20280;-66
2023/07/15 07:58:45;;;;;;;1.42;1.20;;;25.60;74.00;;;;;;5032162;28;20228;-66
2023/07/15 08:01:14;;;;;;;1.77;1.20;;;25.60;74.90;;;;;;5033857;28;20189;-66
2023/07/15 08:03:42;;;;;;;2.90;2.30;;;25.60;74.60;;;;;;5038617;28;20185;-66
2023/07/15 08:06:08;;;;;;;2.67;1.60;;;25.50;74.90;;;;;;5039660;28;20177;-66
2023/07/15 08:08:34;;;;;;;3.15;1.70;;;25.50;75.40;;;;;;5039864;28;20272;-67
2023/07/15 08:10:59;;;;;;;2.63;1.40;;;25.40;77.00;;;;;;5039527;28;20223;-66
2023/07/15 08:13:25;;;;;;;2.08;1.30;;;25.30;79.20;;;;;;5038240;28;20201;-66
2023/07/15 08:15:51;;;;;;;2.05;1.52;;;25.00;79.40;;;;;;5038872;28;20183;-67
2023/07/15 08:18:16;;;;;;;1.70;1.30;;;24.70;80.50;;;;;;5039733;28;20212;-68
2023/07/15 08:20:44;;;;;;;9.75;1.70;;;24.50;81.10;;;;;;5039482;28;20177;-67
2023/07/15 08:23:10;;;;;;;4.85;1.50;;;24.20;81.80;;;;;;5039349;28;20165;-68
2023/07/15 08:25:38;;;;;;;1.73;1.17;;;24.00;83.20;;;;;;5033676;28;20196;-67
2023/07/15 08:28:04;;;;;;;2.22;1.35;;;23.90;84.40;;;;;;5038450;28;20178;-67
2023/07/15 08:30:29;;;;;;;3.38;1.38;;;23.70;84.50;;;;;;5031193;28;20192;-66
2023/07/15 08:32:57;;;;;;;3.65;1.80;;;23.70;84.80;;;;;;5036087;28;20181;-66
2023/07/15 08:35:25;;;;;;;2.03;1.67;;;23.60;85.80;;;;;;5039251;28;20322;-66
2023/07/15 08:37:51;;;;;;;1.73;1.50;;;23.50;87.90;;;;;;5040230;28;20284;-67
2023/07/15 08:40:18;;;;;;;2.10;1.45;;;23.50;87.60;;;;;;5037609;28;20198;-67
2023/07/15 08:42:46;;;;;;;3.63;1.40;;;23.40;88.30;;;;;;5038440;28;20184;-67
2023/07/15 08:45:12;;;;;;;1.42;1.33;;;23.40;88.70;;;;;;5039626;28;20180;-67
2023/07/15 08:47:44;;;;;;;2.15;1.50;;;23.30;89.00;;;;;;5039810;28;20268;-67
2023/07/15 08:50:15;;;;;;;2.13;1.60;;;23.30;89.90;;;;;;5042682;28;20237;-64
2023/07/15 08:52:45;;;;;;;1.75;1.40;;;23.30;90.50;;;;;;5029847;28;20184;-64
2023/07/15 08:55:13;;;;;;;1.73;1.40;;;23.30;91.60;;;;;;5039561;28;20252;-63
2023/07/15 08:57:39;;;;;;;2.95;1.38;;;23.20;91.40;;;;;;5038551;28;20392;-61
2023/07/15 09:00:09;;;;;;;2.40;1.40;;;23.20;91.60;;;;;;5044102;28;20292;-63
2023/07/15 09:02:37;;;;;;;2.00;1.25;;;23.20;93.10;;;;;;5039222;28;20180;-63
2023/07/15 09:05:05;;;;;;;2.25;1.52;;;23.10;92.90;;;;;;5029563;28;20273;-63
2023/07/15 09:07:45;;;;;;;1.58;1.38;;;23.00;93.60;;;;;;5050675;28;20200;-63
2023/07/15 09:10:14;;;;;;;2.72;1.65;;;23.00;95.50;;;;;;5038075;28;20231;-63
2023/07/15 09:12:49;;;;;;;1.92;1.48;;;22.90;94.70;;;;;;5038842;28;20203;-63
2023/07/15 09:15:17;;;;;;;1.90;1.40;;;22.90;95.80;;;;;;5038062;28;20181;-63
2023/07/15 09:17:53;;;;;;;1.85;1.40;;;22.90;96.10;;;;;;5032647;28;20223;-63
2023/07/15 09:20:22;;;;;;;2.28;1.30;;;22.80;97.30;;;;;;5039112;28;20177;-62
2023/07/15 09:22:55;;;;;;;2.65;1.50;;;22.80;97.00;;;;;;5038199;28;20251;-63
2023/07/15 09:25:22;;;;;;;1.73;1.30;;;22.80;97.80;;;;;;5021883;28;20194;-64
2023/07/15 09:27:51;;;;;;;2.58;1.58;;;22.80;97.80;;;;;;5038102;28;20166;-60
2023/07/15 09:30:20;;;;;;;2.53;1.60;;;22.80;98.50;;;;;;5034822;28;20169;-62
2023/07/15 09:32:46;;;;;;;3.58;1.80;;;22.80;99.70;;;;;;5036969;28;20228;-62
2023/07/15 09:35:14;;;;;;;3.35;1.48;;;22.70;99.90;;;;;;5037419;28;20185;-63
2023/07/15 09:37:42;;;;;;;2.58;1.40;;;22.70;99.90;;;;;;5037758;28;20238;-63
2023/07/15 09:40:09;;;;;;;2.30;1.60;;;22.70;99.90;;;;;;5037235;28;20284;-62
2023/07/15 09:42:50;;;;;;;2.22;1.73;;;22.70;99.90;;;;;;5035509;28;20166;-60
2023/07/15 09:45:39;;;;;;;2.85;1.40;;;22.70;99.90;;;;;;5040968;28;20174;-61
2023/07/15 09:48:07;;;;;;;2.67;1.52;;;22.70;99.90;;;;;;5029656;28;20232;-61
2023/07/15 09:50:34;;;;;;;1.77;1.50;;;22.70;99.90;;;;;;5033541;28;20185;-62
2023/07/15 09:53:01;;;;;;;2.35;1.50;;;22.70;99.90;;;;;;5037973;28;20173;-61
2023/07/15 09:55:28;;;;;;;1.65;1.30;;;22.70;99.90;;;;;;5055103;28;20217;-63
2023/07/15 09:58:24;;;;;;;3.05;1.80;;;22.80;99.90;;;;;;5039186;28;20198;-63
2023/07/15 10:01:02;;;;;;;2.00;1.42;;;22.80;99.90;;;;;;5029667;28;20452;-62
2023/07/15 10:03:33;;;;;;;2.58;1.80;;;22.90;99.90;;;;;;5033063;28;20268;-61
2023/07/15 10:06:00;;;;;;;2.83;1.27;;;22.90;99.90;;;;;;5023710;28;20272;-63
2023/07/15 10:08:26;;;;;;;2.13;1.60;;;22.90;99.90;;;;;;5037619;28;20335;-63
2023/07/15 10:10:52;;;;;;;2.00;1.38;;;22.90;99.90;;;;;;5037103;28;20185;-62
2023/07/15 10:13:18;;;;;;;5.13;1.75;;;23.00;99.90;;;;;;5034833;28;20184;-62
2023/07/15 10:15:44;;;;;;;2.10;1.60;;;23.00;99.90;;;;;;5037492;28;20209;-63
2023/07/15 10:18:19;;;;;;;2.10;1.55;;;23.00;99.90;;;;;;5034863;28;20252;-62
2023/07/15 10:21:00;;;;;;;2.13;1.75;;;23.00;99.90;;;;;;5036435;28;20177;-63
2023/07/15 10:23:37;;;;;;;1.77;1.42;;;23.00;99.90;;;;;;5035987;28;20179;-62
2023/07/15 10:26:03;;;;;;;1.73;1.50;;;23.10;99.90;;;;;;5037504;28;20260;-63
2023/07/15 10:28:32;;;;;;;2.92;1.75;;;23.10;99.90;;;;;;5038205;28;20264;-63
2023/07/15 10:31:09;;;;;;;2.20;1.70;;;23.10;99.90;;;;;;5031748;28;20272;-62
2023/07/15 10:33:59;;;;;;;1.92;1.60;;;23.20;99.90;;;;;;5035608;28;20250;-62
2023/07/15 10:36:36;;;;;;;2.28;1.80;;;23.20;99.90;;;;;;5030935;28;20220;-61
2023/07/15 10:39:16;;;;;;;1.98;1.77;;;23.30;99.90;;;;;;5053888;28;20213;-63
2023/07/15 10:41:44;;;;;;;1.90;1.63;;;23.30;99.90;;;;;;5037516;28;20188;-63
2023/07/15 10:44:19;;;;;;;2.92;1.70;;;23.40;99.90;;;;;;5036824;28;20161;-64
2023/07/15 10:47:03;;;;;;;2.17;1.80;;;23.60;99.90;;;;;;5030363;28;20244;-63
2023/07/15 10:49:32;;;;;;;3.03;2.00;;;23.70;99.90;;;;;;5027903;28;20315;-64
2023/07/15 10:52:00;;;;;;;2.55;1.70;;;23.80;99.90;;;;;;5037340;28;20181;-64
2023/07/15 10:54:30;;;;;;;2.45;1.88;;;24.00;99.90;;;;;;5049448;28;20209;-63
2023/07/15 10:56:56;;;;;;;2.22;1.75;;;24.10;99.90;;;;;;5032059;28;20177;-61
2023/07/15 10:59:36;;;;;;;1.83;1.58;;;24.20;99.90;;;;;;5036985;28;20188;-65
2023/07/15 11:02:07;;;;;;;1.90;1.60;;;24.40;99.90;;;;;;5033770;28;20169;-61
2023/07/15 11:04:34;;;;;;;1.95;1.60;;;24.40;99.90;;;;;;5029225;28;20177;-65
2023/07/15 11:07:01;;;;;;;2.08;1.60;;;24.50;99.90;;;;;;5036958;28;20226;-63
2023/07/15 11:09:28;;;;;;;2.65;2.10;;;24.50;99.90;;;;;;5036586;28;20181;-64
2023/07/15 11:11:54;;;;;;;2.35;1.92;;;24.50;99.90;;;;;;5035773;28;20173;-63
2023/07/15 11:14:28;;;;;;;2.70;1.80;;;24.60;99.90;;;;;;5036085;28;20169;-64
2023/07/15 11:17:01;;;;;;;2.63;2.08;;;24.60;99.90;;;;;;5030492;28;20209;-64
2023/07/15 11:19:30;;;;;;;2.50;2.13;;;24.70;99.90;;;;;;5031069;28;20177;-64
2023/07/15 11:21:57;;;;;;;3.45;2.58;;;24.70;99.90;;;;;;5026697;28;20174;-63
2023/07/15 11:24:27;;;;;;;3.20;2.25;;;24.80;99.90;;;;;;5036210;28;20166;-64
2023/07/15 11:26:53;;;;;;;4.03;2.03;;;24.90;99.90;;;;;;5026187;28;20200;-65
2023/07/15 11:29:20;;;;;;;2.33;1.92;;;24.90;99.90;;;;;;5032090;28;20190;-65
2023/07/15 11:31:47;;;;;;;2.63;1.98;;;25.00;99.90;;;;;;5033280;28;20212;-64
2023/07/15 11:34:19;;;;;;;2.67;1.80;;;25.10;99.90;;;;;;5037251;28;20169;-64
2023/07/15 11:36:46;;;;;;;3.47;1.90;;;25.10;99.90;;;;;;5036511;28;20193;-64
2023/07/15 11:39:12;;;;;;;2.15;1.65;;;25.10;99.90;;;;;;5053072;28;20284;-64
2023/07/15 11:41:38;;;;;;;2.58;1.73;;;25.10;99.90;;;;;;5036324;28;20200;-63
2023/07/15 11:44:10;;;;;;;2.80;1.90;;;25.10;99.90;;;;;;5036322;28;20256;-63
2023/07/15 11:46:39;;;;;;;2.95;1.77;;;25.00;99.90;;;;;;5034155;28;20181;-64
2023/07/15 11:49:06;;;;;;;2.60;2.13;;;25.00;99.90;;;;;;5033417;28;20193;-63
2023/07/15 11:51:34;;;;;;;3.47;2.13;;;25.00;99.90;;;;;;5028759;28;20244;-63
2023/07/15 11:54:08;;;;;;;2.67;1.90;;;25.00;99.90;;;;;;5036285;28;20195;-64
2023/07/15 11:56:54;;;;;;;2.35;1.80;;;25.10;99.90;;;;;;5033799;28;20186;-63
2023/07/15 11:59:29;;;;;;;3.28;2.10;;;25.20;99.90;;;;;;5034867;28;20189;-64
2023/07/15 12:01:58;;;;;;;2.63;1.85;;;25.40;99.90;;;;;;5039567;28;20192;-63
2023/07/15 12:04:29;;;;;;;3.58;2.15;;;25.70;99.90;;;;;;5040206;28;20246;-63
2023/07/15 12:06:55;;;;;;;3.58;2.03;;;26.10;99.90;;;;;;5040474;28;20173;-60
2023/07/15 12:09:24;;;;;;;3.28;1.70;;;26.40;99.90;;;;;;5038940;28;20264;-63
2023/07/15 12:11:50;;;;;;;2.53;2.03;;;26.60;99.90;;;;;;5036593;28;20180;-63
2023/07/15 12:14:20;;;;;;;2.58;1.92;;;26.80;99.90;;;;;;5040062;28;20169;-64
2023/07/15 12:16:47;;;;;;;2.75;2.00;;;26.90;99.90;;;;;;5039466;28;20193;-65
2023/07/15 12:19:19;;;;;;;3.22;1.88;;;27.00;99.90;;;;;;5051094;28;20209;-64
2023/07/15 12:21:48;;;;;;;2.50;1.80;;;27.00;99.90;;;;;;5032690;28;20193;-65
2023/07/15 12:24:13;;;;;;;1.92;1.63;;;27.00;99.90;;;;;;5039136;28;20178;-65
2023/07/15 12:26:41;;;;;;;2.65;1.83;;;27.00;99.90;;;;;;5029020;28;20196;-65
2023/07/15 12:29:09;;;;;;;1.70;1.52;;;27.00;99.90;;;;;;5036031;28;20189;-63
2023/07/15 12:31:37;;;;;;;2.47;1.60;;;27.10;99.90;;;;;;5040051;28;20193;-63
2023/07/15 12:34:05;;;;;;;2.17;1.40;;;27.10;99.90;;;;;;5042001;28;20260;-63
2023/07/15 12:36:31;;;;;;;1.65;1.38;;;27.20;99.90;;;;;;5026504;28;20196;-65
2023/07/15 12:38:59;;;;;;;2.42;1.60;;;27.20;99.90;;;;;;5039845;28;20197;-65
2023/07/15 12:41:25;;;;;;;2.00;1.60;;;27.20;99.90;;;;;;5039605;28;20184;-65
2023/07/15 12:43:50;;;;;;;1.70;1.60;;;27.20;99.90;;;;;;5040024;28;20169;-63
2023/07/15 12:46:16;;;;;;;2.53;1.58;;;27.10;99.90;;;;;;5038508;28;20181;-65
2023/07/15 12:48:42;;;;;;;3.78;1.80;;;27.10;99.90;;;;;;5034975;28;20220;-64
2023/07/15 12:51:08;;;;;;;2.80;1.48;;;27.10;99.90;;;;;;5039142;28;20201;-63
2023/07/15 12:53:33;;;;;;;2.10;1.70;;;27.10;99.90;;;;;;5038915;28;20185;-65